sensor_id;sensor_type;location;lat;lon;timestamp;temperature;humidity
7159;DHT22;63175;52.374;13.132;2022-09-27T00:02:21;13.80;96.00
7159;DHT22;63175;52.374;13.132;2022-09-27T00:04:49;13.80;96.00
7159;DHT22;63175;52.374;13.132;2022-09-27T00:07:17;13.80;96.00
7159;DHT22;63175;52.374;13.132;2022-09-27T00:09:44;13.80;96.00
7159;DHT22;63175;52.374;13.132;2022-09-27T00:12:11;13.80;96.00
7159;DHT22;63175;52.374;13.132;2022-09-27T00:14:38;13.80;96.00
7159;DHT22;63175;52.374;13.132;2022-09-27T00:17:05;13.80;96.10
7159;DHT22;63175;52.374;13.132;2022-09-27T00:19:32;13.80;96.10
7159;DHT22;63175;52.374;13.132;2022-09-27T00:22:00;13.80;96.00
7159;DHT22;63175;52.374;13.132;2022-09-27T00:24:28;13.80;96.00
7159;DHT22;63175;52.374;13.132;2022-09-27T00:26:56;13.80;96.00
7159;DHT22;63175;52.374;13.132;2022-09-27T00:29:24;13.70;96.00
7159;DHT22;63175;52.374;13.132;2022-09-27T00:31:51;13.70;96.20
7159;DHT22;63175;52.374;13.132;2022-09-27T00:34:19;13.80;96.20
7159;DHT22;63175;52.374;13.132;2022-09-27T00:36:47;13.70;96.20
7159;DHT22;63175;52.374;13.132;2022-09-27T00:39:15;13.70;96.20
7159;DHT22;63175;52.374;13.132;2022-09-27T00:41:42;13.70;96.20
7159;DHT22;63175;52.374;13.132;2022-09-27T00:47:21;13.60;96.30
7159;DHT22;63175;52.374;13.132;2022-09-27T00:49:53;13.60;96.40
7159;DHT22;63175;52.374;13.132;2022-09-27T00:52:25;13.60;96.40
7159;DHT22;63175;52.374;13.132;2022-09-27T00:54:56;13.70;96.40
7159;DHT22;63175;52.374;13.132;2022-09-27T00:57:26;13.60;96.30
7159;DHT22;63175;52.374;13.132;2022-09-27T00:59:57;13.60;96.30
7159;DHT22;63175;52.374;13.132;2022-09-27T01:02:25;13.60;96.40
7159;DHT22;63175;52.374;13.132;2022-09-27T01:04:52;13.60;96.40
7159;DHT22;63175;52.374;13.132;2022-09-27T01:07:20;13.70;96.40
7159;DHT22;63175;52.374;13.132;2022-09-27T01:09:48;13.60;96.40
7159;DHT22;63175;52.374;13.132;2022-09-27T01:12:22;13.70;96.40
7159;DHT22;63175;52.374;13.132;2022-09-27T01:15:07;13.60;96.30
7159;DHT22;63175;52.374;13.132;2022-09-27T01:17:46;13.60;96.50
7159;DHT22;63175;52.374;13.132;2022-09-27T01:20:42;13.60;96.50
7159;DHT22;63175;52.374;13.132;2022-09-27T01:26:12;13.60;96.50
7159;DHT22;63175;52.374;13.132;2022-09-27T01:28:54;13.60;96.40
7159;DHT22;63175;52.374;13.132;2022-09-27T01:31:29;13.60;96.50
7159;DHT22;63175;52.374;13.132;2022-09-27T01:34:02;13.60;96.50
7159;DHT22;63175;52.374;13.132;2022-09-27T01:36:38;13.60;96.60
7159;DHT22;63175;52.374;13.132;2022-09-27T01:39:18;13.50;96.60
7159;DHT22;63175;52.374;13.132;2022-09-27T01:41:52;13.50;96.80
7159;DHT22;63175;52.374;13.132;2022-09-27T01:44:26;13.50;96.80
7159;DHT22;63175;52.374;13.132;2022-09-27T01:47:00;13.50;96.80
7159;DHT22;63175;52.374;13.132;2022-09-27T01:49:33;13.50;96.70
7159;DHT22;63175;52.374;13.132;2022-09-27T01:52:03;13.50;96.80
7159;DHT22;63175;52.374;13.132;2022-09-27T01:54:36;13.50;96.80
7159;DHT22;63175;52.374;13.132;2022-09-27T01:57:05;13.50;96.70
7159;DHT22;63175;52.374;13.132;2022-09-27T01:59:39;13.60;97.00
7159;DHT22;63175;52.374;13.132;2022-09-27T02:02:10;13.50;96.80
7159;DHT22;63175;52.374;13.132;2022-09-27T02:04:40;13.50;96.80
7159;DHT22;63175;52.374;13.132;2022-09-27T02:07:10;13.50;96.90
7159;DHT22;63175;52.374;13.132;2022-09-27T02:09:39;13.60;96.90
7159;DHT22;63175;52.374;13.132;2022-09-27T02:12:12;13.60;96.90
7159;DHT22;63175;52.374;13.132;2022-09-27T02:14:43;13.60;96.90
7159;DHT22;63175;52.374;13.132;2022-09-27T02:17:19;13.60;96.90
7159;DHT22;63175;52.374;13.132;2022-09-27T02:19:53;13.60;96.90
7159;DHT22;63175;52.374;13.132;2022-09-27T02:22:31;13.60;96.80
7159;DHT22;63175;52.374;13.132;2022-09-27T02:25:01;13.60;96.70
7159;DHT22;63175;52.374;13.132;2022-09-27T02:27:34;13.60;96.80
7159;DHT22;63175;52.374;13.132;2022-09-27T02:30:05;13.70;96.70
7159;DHT22;63175;52.374;13.132;2022-09-27T02:32:35;13.60;96.70
7159;DHT22;63175;52.374;13.132;2022-09-27T02:35:06;13.70;96.90
7159;DHT22;63175;52.374;13.132;2022-09-27T02:37:34;13.70;97.10
7159;DHT22;63175;52.374;13.132;2022-09-27T02:40:01;13.70;97.20
7159;DHT22;63175;52.374;13.132;2022-09-27T02:42:29;13.60;97.20
7159;DHT22;63175;52.374;13.132;2022-09-27T02:44:56;13.60;97.30
7159;DHT22;63175;52.374;13.132;2022-09-27T02:47:37;13.60;97.40
7159;DHT22;63175;52.374;13.132;2022-09-27T02:50:23;13.60;97.40
7159;DHT22;63175;52.374;13.132;2022-09-27T02:52:59;13.60;97.60
7159;DHT22;63175;52.374;13.132;2022-09-27T02:55:42;13.60;97.80
7159;DHT22;63175;52.374;13.132;2022-09-27T02:58:21;13.60;97.90
7159;DHT22;63175;52.374;13.132;2022-09-27T03:00:56;13.60;98.00
7159;DHT22;63175;52.374;13.132;2022-09-27T03:03:33;13.60;98.00
7159;DHT22;63175;52.374;13.132;2022-09-27T03:06:03;13.50;97.90
7159;DHT22;63175;52.374;13.132;2022-09-27T03:08:31;13.50;98.00
7159;DHT22;63175;52.374;13.132;2022-09-27T03:10:58;13.50;98.00
7159;DHT22;63175;52.374;13.132;2022-09-27T03:13:25;13.50;98.00
7159;DHT22;63175;52.374;13.132;2022-09-27T03:15:52;13.50;98.10
7159;DHT22;63175;52.374;13.132;2022-09-27T03:18:19;13.40;98.10
7159;DHT22;63175;52.374;13.132;2022-09-27T03:20:47;13.50;98.30
7159;DHT22;63175;52.374;13.132;2022-09-27T03:23:14;13.50;98.40
7159;DHT22;63175;52.374;13.132;2022-09-27T03:25:41;13.40;98.50
7159;DHT22;63175;52.374;13.132;2022-09-27T03:28:08;13.40;98.60
7159;DHT22;63175;52.374;13.132;2022-09-27T03:30:35;13.40;99.20
7159;DHT22;63175;52.374;13.132;2022-09-27T03:33:02;13.40;99.30
7159;DHT22;63175;52.374;13.132;2022-09-27T03:35:29;13.30;99.70
7159;DHT22;63175;52.374;13.132;2022-09-27T03:37:57;13.30;99.80
7159;DHT22;63175;52.374;13.132;2022-09-27T03:40:24;13.30;99.90
7159;DHT22;63175;52.374;13.132;2022-09-27T03:42:51;13.30;99.90
7159;DHT22;63175;52.374;13.132;2022-09-27T03:45:18;13.30;99.90
7159;DHT22;63175;52.374;13.132;2022-09-27T03:47:45;13.30;99.90
7159;DHT22;63175;52.374;13.132;2022-09-27T03:50:13;13.30;99.90
7159;DHT22;63175;52.374;13.132;2022-09-27T03:52:41;13.30;99.90
7159;DHT22;63175;52.374;13.132;2022-09-27T03:55:10;13.30;99.90
7159;DHT22;63175;52.374;13.132;2022-09-27T03:57:37;13.30;99.90
7159;DHT22;63175;52.374;13.132;2022-09-27T04:00:06;13.30;99.90
7159;DHT22;63175;52.374;13.132;2022-09-27T04:02:33;13.30;99.90
7159;DHT22;63175;52.374;13.132;2022-09-27T04:05:00;13.20;99.90
7159;DHT22;63175;52.374;13.132;2022-09-27T04:07:27;13.20;99.90
7159;DHT22;63175;52.374;13.132;2022-09-27T04:09:54;13.20;99.90
7159;DHT22;63175;52.374;13.132;2022-09-27T04:12:22;13.30;99.90
7159;DHT22;63175;52.374;13.132;2022-09-27T04:14:49;13.20;99.90
7159;DHT22;63175;52.374;13.132;2022-09-27T04:17:16;13.20;99.90
7159;DHT22;63175;52.374;13.132;2022-09-27T04:19:43;13.20;99.90
7159;DHT22;63175;52.374;13.132;2022-09-27T04:22:10;13.20;99.90
7159;DHT22;63175;52.374;13.132;2022-09-27T04:24:38;13.20;99.90
7159;DHT22;63175;52.374;13.132;2022-09-27T04:27:05;13.20;99.90
7159;DHT22;63175;52.374;13.132;2022-09-27T04:29:33;13.20;99.90
7159;DHT22;63175;52.374;13.132;2022-09-27T04:32:01;13.20;99.90
7159;DHT22;63175;52.374;13.132;2022-09-27T04:34:28;13.20;99.90
7159;DHT22;63175;52.374;13.132;2022-09-27T04:37:09;13.10;99.90
7159;DHT22;63175;52.374;13.132;2022-09-27T04:39:36;13.10;99.90
7159;DHT22;63175;52.374;13.132;2022-09-27T04:42:04;13.10;99.90
7159;DHT22;63175;52.374;13.132;2022-09-27T04:44:31;13.10;99.90
7159;DHT22;63175;52.374;13.132;2022-09-27T04:47:00;13.10;99.90
7159;DHT22;63175;52.374;13.132;2022-09-27T04:49:27;13.10;99.90
7159;DHT22;63175;52.374;13.132;2022-09-27T04:51:53;13.00;99.90
7159;DHT22;63175;52.374;13.132;2022-09-27T04:54:21;13.00;99.90
7159;DHT22;63175;52.374;13.132;2022-09-27T04:56:48;13.00;99.90
7159;DHT22;63175;52.374;13.132;2022-09-27T04:59:15;13.00;99.90
7159;DHT22;63175;52.374;13.132;2022-09-27T05:01:42;12.90;99.90
7159;DHT22;63175;52.374;13.132;2022-09-27T05:04:11;12.90;99.90
7159;DHT22;63175;52.374;13.132;2022-09-27T05:06:37;12.90;99.90
7159;DHT22;63175;52.374;13.132;2022-09-27T05:09:04;12.90;99.90
7159;DHT22;63175;52.374;13.132;2022-09-27T05:11:32;12.90;99.90
7159;DHT22;63175;52.374;13.132;2022-09-27T05:14:02;12.90;99.90
7159;DHT22;63175;52.374;13.132;2022-09-27T05:16:29;12.90;99.90
7159;DHT22;63175;52.374;13.132;2022-09-27T05:18:56;12.80;99.90
7159;DHT22;63175;52.374;13.132;2022-09-27T05:21:24;12.80;99.90
7159;DHT22;63175;52.374;13.132;2022-09-27T05:23:51;12.80;99.90
7159;DHT22;63175;52.374;13.132;2022-09-27T05:26:18;12.80;99.90
7159;DHT22;63175;52.374;13.132;2022-09-27T05:28:45;12.70;99.90
7159;DHT22;63175;52.374;13.132;2022-09-27T05:31:12;12.70;99.90
7159;DHT22;63175;52.374;13.132;2022-09-27T05:33:39;12.70;99.90
7159;DHT22;63175;52.374;13.132;2022-09-27T05:36:08;12.70;99.90
7159;DHT22;63175;52.374;13.132;2022-09-27T05:38:36;12.70;99.90
7159;DHT22;63175;52.374;13.132;2022-09-27T05:41:03;12.70;99.90
7159;DHT22;63175;52.374;13.132;2022-09-27T05:43:31;12.70;99.90
7159;DHT22;63175;52.374;13.132;2022-09-27T05:45:59;12.70;99.90
7159;DHT22;63175;52.374;13.132;2022-09-27T05:48:26;12.70;99.90
7159;DHT22;63175;52.374;13.132;2022-09-27T05:50:54;12.70;99.90
7159;DHT22;63175;52.374;13.132;2022-09-27T05:53:21;12.70;99.90
7159;DHT22;63175;52.374;13.132;2022-09-27T05:55:50;12.60;99.90
7159;DHT22;63175;52.374;13.132;2022-09-27T05:58:17;12.60;99.90
7159;DHT22;63175;52.374;13.132;2022-09-27T06:00:44;12.60;99.90
7159;DHT22;63175;52.374;13.132;2022-09-27T06:03:12;12.60;99.90
7159;DHT22;63175;52.374;13.132;2022-09-27T06:05:39;12.60;99.90
7159;DHT22;63175;52.374;13.132;2022-09-27T06:08:08;12.60;99.90
7159;DHT22;63175;52.374;13.132;2022-09-27T06:10:35;12.50;99.90
7159;DHT22;63175;52.374;13.132;2022-09-27T06:13:05;12.60;99.90
7159;DHT22;63175;52.374;13.132;2022-09-27T06:15:34;12.60;99.90
7159;DHT22;63175;52.374;13.132;2022-09-27T06:18:03;12.50;99.90
7159;DHT22;63175;52.374;13.132;2022-09-27T06:20:32;12.50;99.90
7159;DHT22;63175;52.374;13.132;2022-09-27T06:23:07;12.60;99.90
7159;DHT22;63175;52.374;13.132;2022-09-27T06:25:34;12.60;99.90
7159;DHT22;63175;52.374;13.132;2022-09-27T06:28:03;12.60;99.90
7159;DHT22;63175;52.374;13.132;2022-09-27T06:30:31;12.60;99.90
7159;DHT22;63175;52.374;13.132;2022-09-27T06:32:59;12.60;99.90
7159;DHT22;63175;52.374;13.132;2022-09-27T06:35:27;12.50;99.90
7159;DHT22;63175;52.374;13.132;2022-09-27T06:37:55;12.60;99.90
7159;DHT22;63175;52.374;13.132;2022-09-27T06:40:23;12.50;99.90
7159;DHT22;63175;52.374;13.132;2022-09-27T06:42:51;12.60;99.90
7159;DHT22;63175;52.374;13.132;2022-09-27T06:45:20;12.60;99.90
7159;DHT22;63175;52.374;13.132;2022-09-27T06:47:47;12.50;99.90
7159;DHT22;63175;52.374;13.132;2022-09-27T06:50:14;12.50;99.90
7159;DHT22;63175;52.374;13.132;2022-09-27T06:52:46;12.50;99.90
7159;DHT22;63175;52.374;13.132;2022-09-27T06:55:13;12.60;99.90
7159;DHT22;63175;52.374;13.132;2022-09-27T06:57:40;12.50;99.90
7159;DHT22;63175;52.374;13.132;2022-09-27T07:00:26;12.50;99.90
7159;DHT22;63175;52.374;13.132;2022-09-27T07:02:55;12.60;99.90
7159;DHT22;63175;52.374;13.132;2022-09-27T07:05:25;12.60;99.90
7159;DHT22;63175;52.374;13.132;2022-09-27T07:07:53;12.60;99.90
7159;DHT22;63175;52.374;13.132;2022-09-27T07:10:23;12.60;99.90
7159;DHT22;63175;52.374;13.132;2022-09-27T07:12:51;12.60;99.90
7159;DHT22;63175;52.374;13.132;2022-09-27T07:15:18;12.60;99.90
7159;DHT22;63175;52.374;13.132;2022-09-27T07:17:54;12.60;99.90
7159;DHT22;63175;52.374;13.132;2022-09-27T07:20:21;12.60;99.90
7159;DHT22;63175;52.374;13.132;2022-09-27T07:22:48;12.60;99.90
7159;DHT22;63175;52.374;13.132;2022-09-27T07:25:15;12.60;99.90
7159;DHT22;63175;52.374;13.132;2022-09-27T07:27:42;12.70;99.90
7159;DHT22;63175;52.374;13.132;2022-09-27T07:30:10;12.60;99.90
7159;DHT22;63175;52.374;13.132;2022-09-27T07:32:37;12.60;99.90
7159;DHT22;63175;52.374;13.132;2022-09-27T07:35:08;12.60;99.90
7159;DHT22;63175;52.374;13.132;2022-09-27T07:37:36;12.60;99.90
7159;DHT22;63175;52.374;13.132;2022-09-27T07:40:05;12.60;99.90
7159;DHT22;63175;52.374;13.132;2022-09-27T07:42:34;12.60;99.90
7159;DHT22;63175;52.374;13.132;2022-09-27T07:45:02;12.60;99.90
7159;DHT22;63175;52.374;13.132;2022-09-27T07:47:29;12.60;99.90
7159;DHT22;63175;52.374;13.132;2022-09-27T07:49:56;12.70;99.90
7159;DHT22;63175;52.374;13.132;2022-09-27T07:52:25;12.70;99.90
7159;DHT22;63175;52.374;13.132;2022-09-27T07:54:52;12.70;99.90
7159;DHT22;63175;52.374;13.132;2022-09-27T07:57:21;12.70;99.90
7159;DHT22;63175;52.374;13.132;2022-09-27T07:59:48;12.70;99.90
7159;DHT22;63175;52.374;13.132;2022-09-27T08:02:16;12.70;99.90
7159;DHT22;63175;52.374;13.132;2022-09-27T08:04:43;12.70;99.90
7159;DHT22;63175;52.374;13.132;2022-09-27T08:07:11;12.70;99.90
7159;DHT22;63175;52.374;13.132;2022-09-27T08:09:40;12.70;99.90
7159;DHT22;63175;52.374;13.132;2022-09-27T08:12:07;12.70;99.90
7159;DHT22;63175;52.374;13.132;2022-09-27T08:14:34;12.70;99.90
7159;DHT22;63175;52.374;13.132;2022-09-27T08:17:01;12.70;99.90
7159;DHT22;63175;52.374;13.132;2022-09-27T08:19:28;12.70;99.90
7159;DHT22;63175;52.374;13.132;2022-09-27T08:21:55;12.70;99.90
7159;DHT22;63175;52.374;13.132;2022-09-27T08:24:22;12.70;99.90
7159;DHT22;63175;52.374;13.132;2022-09-27T08:26:51;12.80;99.90
7159;DHT22;63175;52.374;13.132;2022-09-27T08:29:18;12.70;99.90
7159;DHT22;63175;52.374;13.132;2022-09-27T08:31:45;12.70;99.90
7159;DHT22;63175;52.374;13.132;2022-09-27T08:34:12;12.80;99.90
7159;DHT22;63175;52.374;13.132;2022-09-27T08:36:41;12.80;99.90
7159;DHT22;63175;52.374;13.132;2022-09-27T08:39:08;12.80;99.90
7159;DHT22;63175;52.374;13.132;2022-09-27T08:41:37;12.80;99.90
7159;DHT22;63175;52.374;13.132;2022-09-27T08:44:12;12.80;99.90
7159;DHT22;63175;52.374;13.132;2022-09-27T08:46:50;12.90;99.90
7159;DHT22;63175;52.374;13.132;2022-09-27T08:49:23;12.90;99.90
7159;DHT22;63175;52.374;13.132;2022-09-27T08:51:53;12.90;99.90
7159;DHT22;63175;52.374;13.132;2022-09-27T08:54:23;12.90;99.90
7159;DHT22;63175;52.374;13.132;2022-09-27T08:56:52;12.90;99.90
7159;DHT22;63175;52.374;13.132;2022-09-27T08:59:26;12.90;99.90
7159;DHT22;63175;52.374;13.132;2022-09-27T09:01:54;12.90;99.90
7159;DHT22;63175;52.374;13.132;2022-09-27T09:04:25;12.90;99.90
7159;DHT22;63175;52.374;13.132;2022-09-27T09:07:04;12.90;99.90
7159;DHT22;63175;52.374;13.132;2022-09-27T09:09:39;13.00;99.90
7159;DHT22;63175;52.374;13.132;2022-09-27T09:12:19;13.00;99.90
7159;DHT22;63175;52.374;13.132;2022-09-27T09:15:25;13.00;99.90
7159;DHT22;63175;52.374;13.132;2022-09-27T09:18:19;13.00;99.90
7159;DHT22;63175;52.374;13.132;2022-09-27T09:20:54;13.10;99.90
7159;DHT22;63175;52.374;13.132;2022-09-27T09:23:55;13.10;99.90
7159;DHT22;63175;52.374;13.132;2022-09-27T09:26:31;13.10;99.90
7159;DHT22;63175;52.374;13.132;2022-09-27T09:29:21;13.20;99.90
7159;DHT22;63175;52.374;13.132;2022-09-27T09:32:01;13.20;99.90
7159;DHT22;63175;52.374;13.132;2022-09-27T09:34:37;13.20;99.90
7159;DHT22;63175;52.374;13.132;2022-09-27T09:37:10;13.20;99.90
7159;DHT22;63175;52.374;13.132;2022-09-27T09:39:41;13.20;99.90
7159;DHT22;63175;52.374;13.132;2022-09-27T09:42:13;13.20;99.90
7159;DHT22;63175;52.374;13.132;2022-09-27T09:44:47;13.20;99.90
7159;DHT22;63175;52.374;13.132;2022-09-27T09:47:25;13.20;99.90
7159;DHT22;63175;52.374;13.132;2022-09-27T09:49:57;13.20;99.90
7159;DHT22;63175;52.374;13.132;2022-09-27T09:52:31;13.20;99.90
7159;DHT22;63175;52.374;13.132;2022-09-27T09:55:03;13.20;99.90
7159;DHT22;63175;52.374;13.132;2022-09-27T09:57:37;13.30;99.90
7159;DHT22;63175;52.374;13.132;2022-09-27T10:00:11;13.30;99.90
7159;DHT22;63175;52.374;13.132;2022-09-27T10:02:42;13.40;99.90
7159;DHT22;63175;52.374;13.132;2022-09-27T10:05:13;13.50;99.90
7159;DHT22;63175;52.374;13.132;2022-09-27T10:07:41;13.60;99.90
7159;DHT22;63175;52.374;13.132;2022-09-27T10:10:13;13.60;99.90
7159;DHT22;63175;52.374;13.132;2022-09-27T10:12:40;13.70;99.90
7159;DHT22;63175;52.374;13.132;2022-09-27T10:15:14;13.70;99.90
7159;DHT22;63175;52.374;13.132;2022-09-27T10:17:47;13.80;99.90
7159;DHT22;63175;52.374;13.132;2022-09-27T10:20:26;13.80;99.90
7159;DHT22;63175;52.374;13.132;2022-09-27T10:23:00;13.70;99.90
7159;DHT22;63175;52.374;13.132;2022-09-27T10:25:45;13.70;99.90
7159;DHT22;63175;52.374;13.132;2022-09-27T10:28:26;13.70;99.90
7159;DHT22;63175;52.374;13.132;2022-09-27T10:30:59;13.60;99.90
7159;DHT22;63175;52.374;13.132;2022-09-27T10:33:29;13.60;99.90
7159;DHT22;63175;52.374;13.132;2022-09-27T10:35:57;13.60;99.90
7159;DHT22;63175;52.374;13.132;2022-09-27T10:38:27;13.60;99.90
7159;DHT22;63175;52.374;13.132;2022-09-27T10:40:56;13.60;99.90
7159;DHT22;63175;52.374;13.132;2022-09-27T10:43:30;13.60;99.90
7159;DHT22;63175;52.374;13.132;2022-09-27T10:46:15;13.60;99.90
7159;DHT22;63175;52.374;13.132;2022-09-27T10:48:46;13.60;99.90
7159;DHT22;63175;52.374;13.132;2022-09-27T10:51:24;13.70;99.90
7159;DHT22;63175;52.374;13.132;2022-09-27T10:53:52;13.70;99.90
7159;DHT22;63175;52.374;13.132;2022-09-27T10:56:26;13.70;99.90
7159;DHT22;63175;52.374;13.132;2022-09-27T10:58:54;13.70;99.90
7159;DHT22;63175;52.374;13.132;2022-09-27T11:01:21;13.80;99.90
7159;DHT22;63175;52.374;13.132;2022-09-27T11:03:54;13.80;99.90
7159;DHT22;63175;52.374;13.132;2022-09-27T11:06:28;13.80;99.90
7159;DHT22;63175;52.374;13.132;2022-09-27T11:09:09;13.70;99.90
7159;DHT22;63175;52.374;13.132;2022-09-27T11:11:36;13.80;99.90
7159;DHT22;63175;52.374;13.132;2022-09-27T11:14:08;13.70;99.90
7159;DHT22;63175;52.374;13.132;2022-09-27T11:16:49;13.70;99.90
7159;DHT22;63175;52.374;13.132;2022-09-27T11:19:35;13.60;99.90
7159;DHT22;63175;52.374;13.132;2022-09-27T11:22:13;13.40;99.90
7159;DHT22;63175;52.374;13.132;2022-09-27T11:25:01;13.30;99.90
7159;DHT22;63175;52.374;13.132;2022-09-27T11:27:41;13.20;99.90
7159;DHT22;63175;52.374;13.132;2022-09-27T11:30:13;13.10;99.90
7159;DHT22;63175;52.374;13.132;2022-09-27T11:32:54;13.00;99.90
7159;DHT22;63175;52.374;13.132;2022-09-27T11:35:41;13.00;99.90
7159;DHT22;63175;52.374;13.132;2022-09-27T11:38:17;13.00;99.90
7159;DHT22;63175;52.374;13.132;2022-09-27T11:41:18;13.00;99.90
7159;DHT22;63175;52.374;13.132;2022-09-27T11:44:10;13.00;99.90
7159;DHT22;63175;52.374;13.132;2022-09-27T11:46:39;13.00;99.90
7159;DHT22;63175;52.374;13.132;2022-09-27T11:49:26;13.00;99.90
7159;DHT22;63175;52.374;13.132;2022-09-27T11:52:21;13.00;99.90
7159;DHT22;63175;52.374;13.132;2022-09-27T11:55:12;13.10;99.90
7159;DHT22;63175;52.374;13.132;2022-09-27T11:57:43;13.10;99.90
7159;DHT22;63175;52.374;13.132;2022-09-27T12:00:17;13.20;99.90
7159;DHT22;63175;52.374;13.132;2022-09-27T12:06:04;13.30;99.90
7159;DHT22;63175;52.374;13.132;2022-09-27T12:08:41;13.30;99.90
7159;DHT22;63175;52.374;13.132;2022-09-27T12:11:15;13.40;99.90
7159;DHT22;63175;52.374;13.132;2022-09-27T12:13:46;13.40;99.90
7159;DHT22;63175;52.374;13.132;2022-09-27T12:16:15;13.50;99.90
7159;DHT22;63175;52.374;13.132;2022-09-27T12:18:43;13.60;99.90
7159;DHT22;63175;52.374;13.132;2022-09-27T12:21:12;13.60;99.90
7159;DHT22;63175;52.374;13.132;2022-09-27T12:23:42;13.70;99.90
7159;DHT22;63175;52.374;13.132;2022-09-27T12:26:14;13.70;99.90
7159;DHT22;63175;52.374;13.132;2022-09-27T12:28:47;13.80;99.90
7159;DHT22;63175;52.374;13.132;2022-09-27T12:31:20;13.90;99.90
7159;DHT22;63175;52.374;13.132;2022-09-27T12:33:56;14.10;99.90
7159;DHT22;63175;52.374;13.132;2022-09-27T12:36:31;14.30;99.90
7159;DHT22;63175;52.374;13.132;2022-09-27T12:39:05;14.50;99.90
7159;DHT22;63175;52.374;13.132;2022-09-27T12:41:40;14.70;99.90
7159;DHT22;63175;52.374;13.132;2022-09-27T12:44:09;14.80;99.90
7159;DHT22;63175;52.374;13.132;2022-09-27T12:46:44;14.70;99.90
7159;DHT22;63175;52.374;13.132;2022-09-27T12:49:16;14.70;99.90
7159;DHT22;63175;52.374;13.132;2022-09-27T12:51:52;14.70;99.90
7159;DHT22;63175;52.374;13.132;2022-09-27T12:54:46;14.70;99.90
7159;DHT22;63175;52.374;13.132;2022-09-27T12:57:25;14.60;99.90
7159;DHT22;63175;52.374;13.132;2022-09-27T13:00:03;14.60;99.90
7159;DHT22;63175;52.374;13.132;2022-09-27T13:02:58;14.70;99.90
7159;DHT22;63175;52.374;13.132;2022-09-27T13:05:43;14.70;99.90
7159;DHT22;63175;52.374;13.132;2022-09-27T13:08:32;14.90;99.90
7159;DHT22;63175;52.374;13.132;2022-09-27T13:11:08;15.00;99.90
7159;DHT22;63175;52.374;13.132;2022-09-27T13:13:38;15.20;99.90
7159;DHT22;63175;52.374;13.132;2022-09-27T13:16:05;15.30;99.90
7159;DHT22;63175;52.374;13.132;2022-09-27T13:18:53;15.30;99.90
7159;DHT22;63175;52.374;13.132;2022-09-27T13:21:57;15.30;99.90
7159;DHT22;63175;52.374;13.132;2022-09-27T13:24:43;15.20;99.90
7159;DHT22;63175;52.374;13.132;2022-09-27T13:27:38;15.10;99.90
7159;DHT22;63175;52.374;13.132;2022-09-27T13:33:40;14.90;99.90
7159;DHT22;63175;52.374;13.132;2022-09-27T13:36:20;14.80;99.90
7159;DHT22;63175;52.374;13.132;2022-09-27T13:39:04;14.70;99.90
7159;DHT22;63175;52.374;13.132;2022-09-27T13:41:56;14.60;99.90
7159;DHT22;63175;52.374;13.132;2022-09-27T13:44:31;14.60;99.90
7159;DHT22;63175;52.374;13.132;2022-09-27T13:47:03;14.50;99.90
7159;DHT22;63175;52.374;13.132;2022-09-27T13:49:36;14.40;99.90
7159;DHT22;63175;52.374;13.132;2022-09-27T13:52:16;14.30;99.90
7159;DHT22;63175;52.374;13.132;2022-09-27T13:54:50;14.20;99.90
7159;DHT22;63175;52.374;13.132;2022-09-27T13:57:39;14.20;99.90
7159;DHT22;63175;52.374;13.132;2022-09-27T14:00:11;14.20;99.90
7159;DHT22;63175;52.374;13.132;2022-09-27T14:02:44;14.20;99.90
7159;DHT22;63175;52.374;13.132;2022-09-27T14:05:20;14.20;99.90
7159;DHT22;63175;52.374;13.132;2022-09-27T14:07:49;14.20;99.90
7159;DHT22;63175;52.374;13.132;2022-09-27T14:10:20;14.20;99.90
7159;DHT22;63175;52.374;13.132;2022-09-27T14:12:50;14.40;99.90
7159;DHT22;63175;52.374;13.132;2022-09-27T14:15:22;14.40;99.90
7159;DHT22;63175;52.374;13.132;2022-09-27T14:17:49;14.50;99.90
7159;DHT22;63175;52.374;13.132;2022-09-27T14:20:34;14.50;99.90
7159;DHT22;63175;52.374;13.132;2022-09-27T14:23:02;14.50;99.90
7159;DHT22;63175;52.374;13.132;2022-09-27T14:25:29;14.60;99.90
7159;DHT22;63175;52.374;13.132;2022-09-27T14:27:56;14.50;99.90
7159;DHT22;63175;52.374;13.132;2022-09-27T14:30:28;14.50;99.90
7159;DHT22;63175;52.374;13.132;2022-09-27T14:32:56;14.50;99.90
7159;DHT22;63175;52.374;13.132;2022-09-27T14:35:25;14.40;99.90
7159;DHT22;63175;52.374;13.132;2022-09-27T14:38:12;14.40;99.90
7159;DHT22;63175;52.374;13.132;2022-09-27T14:40:42;14.40;99.90
7159;DHT22;63175;52.374;13.132;2022-09-27T14:43:14;14.40;99.90
7159;DHT22;63175;52.374;13.132;2022-09-27T14:45:45;14.30;99.90
7159;DHT22;63175;52.374;13.132;2022-09-27T14:48:21;14.30;99.90
7159;DHT22;63175;52.374;13.132;2022-09-27T14:50:55;14.30;99.90
7159;DHT22;63175;52.374;13.132;2022-09-27T14:53:27;14.30;99.90
7159;DHT22;63175;52.374;13.132;2022-09-27T14:55:55;14.30;99.90
7159;DHT22;63175;52.374;13.132;2022-09-27T14:58:22;14.20;99.90
7159;DHT22;63175;52.374;13.132;2022-09-27T15:00:52;14.20;99.90
7159;DHT22;63175;52.374;13.132;2022-09-27T15:03:22;14.20;99.90
7159;DHT22;63175;52.374;13.132;2022-09-27T15:05:51;14.10;99.90
7159;DHT22;63175;52.374;13.132;2022-09-27T15:08:20;14.10;99.90
7159;DHT22;63175;52.374;13.132;2022-09-27T15:10:48;14.10;99.90
7159;DHT22;63175;52.374;13.132;2022-09-27T15:13:17;14.00;99.90
7159;DHT22;63175;52.374;13.132;2022-09-27T15:15:45;14.00;99.90
7159;DHT22;63175;52.374;13.132;2022-09-27T15:18:39;14.00;99.90
7159;DHT22;63175;52.374;13.132;2022-09-27T15:21:11;13.90;99.90
7159;DHT22;63175;52.374;13.132;2022-09-27T15:23:40;13.90;99.90
7159;DHT22;63175;52.374;13.132;2022-09-27T15:26:10;13.90;99.90
7159;DHT22;63175;52.374;13.132;2022-09-27T15:28:42;13.80;99.90
7159;DHT22;63175;52.374;13.132;2022-09-27T15:31:09;13.80;99.90
7159;DHT22;63175;52.374;13.132;2022-09-27T15:33:38;13.80;99.90
7159;DHT22;63175;52.374;13.132;2022-09-27T15:36:06;13.80;99.90
7159;DHT22;63175;52.374;13.132;2022-09-27T15:38:34;13.80;99.90
7159;DHT22;63175;52.374;13.132;2022-09-27T15:41:12;13.80;99.90
7159;DHT22;63175;52.374;13.132;2022-09-27T15:43:41;13.70;99.90
7159;DHT22;63175;52.374;13.132;2022-09-27T15:46:31;13.70;99.90
7159;DHT22;63175;52.374;13.132;2022-09-27T15:49:28;13.70;99.90
7159;DHT22;63175;52.374;13.132;2022-09-27T15:51:57;13.70;99.90
7159;DHT22;63175;52.374;13.132;2022-09-27T15:54:25;13.70;99.90
7159;DHT22;63175;52.374;13.132;2022-09-27T15:56:55;13.70;99.90
7159;DHT22;63175;52.374;13.132;2022-09-27T15:59:26;13.70;99.90
7159;DHT22;63175;52.374;13.132;2022-09-27T16:01:57;13.70;99.90
7159;DHT22;63175;52.374;13.132;2022-09-27T16:04:25;13.70;99.90
7159;DHT22;63175;52.374;13.132;2022-09-27T16:06:53;13.70;99.90
7159;DHT22;63175;52.374;13.132;2022-09-27T16:09:20;13.70;99.90
7159;DHT22;63175;52.374;13.132;2022-09-27T16:11:48;13.60;99.90
7159;DHT22;63175;52.374;13.132;2022-09-27T16:14:16;13.60;99.90